Time;durP1;ratioP1;P1;durP2;ratioP2;P2;SDS_P1;SDS_P2;PMS_P1;PMS_P2;Temp;Humidity;BMP_temperature;BMP_pressure;BME280_temperature;BME280_humidity;BME280_pressure;Samples;Min_cycle;Max_cycle;Signal;HPM_P1;HPM_P2
2023/02/04 00:02:18;;;;;;;31.60;17.90;;;;;;;-2.17;100.00;99965.01;105156;1260;73266;-66
2023/02/04 00:04:47;;;;;;;31.00;17.10;;;;;;;-2.16;100.00;99964.83;105314;1260;61833;-66
2023/02/04 00:07:17;;;;;;;26.70;15.60;;;;;;;-2.16;100.00;99960.23;104817;1257;61230;-67
2023/02/04 00:09:50;;;;;;;29.20;14.60;;;;;;;-2.16;100.00;99951.83;104961;1259;76421;-67
2023/02/04 00:12:19;;;;;;;26.30;15.60;;;;;;;-2.16;100.00;99952.53;105135;1256;68033;-68
2023/02/04 00:14:47;;;;;;;21.80;12.50;;;;;;;-2.17;100.00;99948.17;105179;1259;73907;-66
2023/02/04 00:17:16;;;;;;;25.90;14.10;;;;;;;-2.19;100.00;99948.68;105058;1262;62527;-66
2023/02/04 00:19:45;;;;;;;24.20;14.10;;;;;;;-2.21;100.00;99946.70;105318;1260;61674;-63
2023/02/04 00:22:14;;;;;;;27.80;14.60;;;;;;;-2.22;100.00;99938.95;105052;1258;74092;-66
2023/02/04 00:24:47;;;;;;;29.90;16.10;;;;;;;-2.23;100.00;99939.70;105127;1262;68899;-62
2023/02/04 00:27:15;;;;;;;27.90;15.70;;;;;;;-2.29;100.00;99932.63;105026;1261;72678;-65
2023/02/04 00:29:44;;;;;;;27.40;15.60;;;;;;;-2.33;100.00;99931.56;105034;1259;62602;-66
2023/02/04 00:32:13;;;;;;;25.50;14.40;;;;;;;-2.37;100.00;99928.45;105113;1257;62219;-66
2023/02/04 00:34:42;;;;;;;26.50;14.60;;;;;;;-2.40;100.00;99928.36;105173;1257;76300;-61
2023/02/04 00:37:10;;;;;;;25.80;15.70;;;;;;;-2.41;100.00;99931.30;105032;1256;67812;-66
2023/02/04 00:39:39;;;;;;;25.50;14.80;;;;;;;-2.44;100.00;99930.13;104965;1257;73248;-65
2023/02/04 00:42:08;;;;;;;25.70;14.70;;;;;;;-2.46;100.00;99929.80;105052;1260;61356;-66
2023/02/04 00:44:36;;;;;;;25.70;14.60;;;;;;;-2.47;100.00;99932.23;105237;1257;61350;-63
2023/02/04 00:47:05;;;;;;;29.70;15.80;;;;;;;-2.49;100.00;99931.88;105030;1256;76301;-68
2023/02/04 00:49:33;;;;;;;30.60;16.60;;;;;;;-2.49;100.00;99931.73;105107;1259;68703;-65
2023/02/04 00:52:02;;;;;;;32.40;16.80;;;;;;;-2.47;100.00;99932.40;105002;1264;73196;-66
2023/02/04 00:54:31;;;;;;;34.30;18.60;;;;;;;-2.49;100.00;99933.25;105411;1257;61952;-64
2023/02/04 00:57:00;;;;;;;34.10;19.50;;;;;;;-2.49;100.00;99932.22;105216;1260;61241;-66
2023/02/04 00:59:28;;;;;;;35.60;20.10;;;;;;;-2.48;100.00;99934.88;105288;1259;76175;-66
2023/02/04 01:01:57;;;;;;;37.90;20.60;;;;;;;-2.48;100.00;99937.60;105147;1256;68062;-66
2023/02/04 01:04:27;;;;;;;33.90;19.50;;;;;;;-2.49;100.00;99939.02;105298;1256;74220;-66
2023/02/04 01:06:55;;;;;;;39.60;21.70;;;;;;;-2.52;100.00;99932.91;104955;1262;61540;-66
2023/02/04 01:09:24;;;;;;;37.70;20.70;;;;;;;-2.52;100.00;99935.47;105242;1257;61253;-66
2023/02/04 01:11:53;;;;;;;38.40;21.30;;;;;;;-2.50;100.00;99928.37;105031;1257;74367;-67
2023/02/04 01:14:23;;;;;;;34.80;18.80;;;;;;;-2.50;100.00;99925.98;105191;1257;68200;-63
2023/02/04 01:16:51;;;;;;;28.10;16.90;;;;;;;-2.53;100.00;99924.31;104924;1257;73102;-65
2023/02/04 01:19:20;;;;;;;35.20;19.70;;;;;;;-2.55;100.00;99924.81;105299;1257;61286;-67
2023/02/04 01:21:49;;;;;;;32.00;18.20;;;;;;;-2.53;100.00;99930.98;105116;1259;61360;-65
2023/02/04 01:24:17;;;;;;;30.50;17.70;;;;;;;-2.52;100.00;99926.14;105195;1258;76066;-62
2023/02/04 01:27:05;;;;;;;29.20;17.90;;;;;;;-2.49;100.00;99923.02;105155;1257;66632;-66
2023/02/04 01:29:34;;;;;;;31.00;17.00;;;;;;;-2.47;100.00;99922.69;105037;1260;72405;-67
2023/02/04 01:32:02;;;;;;;31.10;15.80;;;;;;;-2.47;100.00;99918.63;105275;1259;61203;-63
2023/02/04 01:34:31;;;;;;;31.20;17.80;;;;;;;-2.48;100.00;99917.65;104818;1256;61361;-66
2023/02/04 01:37:01;;;;;;;24.20;15.70;;;;;;;-2.48;100.00;99919.41;105027;1256;75961;-62
2023/02/04 01:39:30;;;;;;;32.00;16.80;;;;;;;-2.47;100.00;99919.79;105051;1256;67753;-64
2023/02/04 01:41:59;;;;;;;29.00;17.50;;;;;;;-2.45;100.00;99921.89;105256;1257;74220;-65
2023/02/04 01:44:28;;;;;;;30.10;17.60;;;;;;;-2.42;100.00;99924.10;104987;1260;62537;-65
2023/02/04 01:46:56;;;;;;;27.30;16.70;;;;;;;-2.36;100.00;99926.72;105156;1256;61879;-63
2023/02/04 01:49:27;;;;;;;28.30;15.90;;;;;;;-2.32;100.00;99923.71;105057;1259;76059;-65
2023/02/04 01:51:56;;;;;;;23.90;15.20;;;;;;;-2.27;100.00;99926.88;105270;1257;68638;-64
2023/02/04 01:54:25;;;;;;;27.50;14.80;;;;;;;-2.22;100.00;99929.80;104984;1257;73431;-66
2023/02/04 01:56:54;;;;;;;28.10;15.10;;;;;;;-2.15;100.00;99933.94;105147;1256;61725;-63
2023/02/04 01:59:23;;;;;;;27.10;14.90;;;;;;;-2.12;100.00;99936.73;105145;1257;61230;-67
2023/02/04 02:01:52;;;;;;;26.40;14.40;;;;;;;-2.06;100.00;99936.30;105672;1257;76220;-65
2023/02/04 02:04:29;;;;;;;23.80;13.80;;;;;;;-2.01;100.00;99936.15;105557;1256;68108;-65
2023/02/04 02:07:03;;;;;;;25.00;14.50;;;;;;;-1.99;100.00;99939.06;105360;1257;73148;-66
2023/02/04 02:09:32;;;;;;;22.90;13.60;;;;;;;-1.96;100.00;99938.17;105370;1258;61988;-67
2023/02/04 02:12:04;;;;;;;24.60;12.80;;;;;;;-1.96;100.00;99934.58;105450;1257;61899;-67
2023/02/04 02:14:33;;;;;;;25.90;13.50;;;;;;;-1.96;100.00;99930.67;105529;1260;75961;-62
2023/02/04 02:17:02;;;;;;;25.80;14.90;;;;;;;-1.98;100.00;99931.50;105333;1263;68625;-68
2023/02/04 02:19:34;;;;;;;24.10;14.30;;;;;;;-1.98;100.00;99927.34;105310;1260;74052;-65
2023/02/04 02:22:17;;;;;;;26.10;15.50;;;;;;;-1.97;100.00;99931.20;105163;1257;62727;-67
2023/02/04 02:24:47;;;;;;;28.70;15.30;;;;;;;-1.92;100.00;99926.98;105326;1262;61398;-66
2023/02/04 02:27:16;;;;;;;26.00;14.60;;;;;;;-1.88;100.00;99927.35;105164;1259;76023;-67
2023/02/04 02:29:45;;;;;;;25.20;13.50;;;;;;;-1.83;100.00;99927.63;105503;1260;67691;-67
2023/02/04 02:32:13;;;;;;;24.20;13.70;;;;;;;-1.77;100.00;99929.30;105522;1260;74166;-67
2023/02/04 02:34:42;;;;;;;28.10;16.10;;;;;;;-1.74;100.00;99926.64;105491;1260;61843;-66
2023/02/04 02:37:11;;;;;;;27.90;14.80;;;;;;;-1.72;100.00;99927.00;105467;1259;61846;-64
2023/02/04 02:39:41;;;;;;;25.80;15.20;;;;;;;-1.71;100.00;99926.63;105507;1261;75171;-67
2023/02/04 02:42:12;;;;;;;30.00;14.90;;;;;;;-1.69;100.00;99922.60;105171;1262;68631;-64
2023/02/04 02:44:42;;;;;;;26.90;14.30;;;;;;;-1.67;100.00;99919.17;105547;1262;73378;-66
2023/02/04 02:47:13;;;;;;;26.70;14.70;;;;;;;-1.67;100.00;99915.75;105073;1256;61314;-62
2023/02/04 02:49:42;;;;;;;23.90;13.10;;;;;;;-1.66;100.00;99917.23;104813;1257;61635;-68
2023/02/04 02:52:11;;;;;;;24.50;14.10;;;;;;;-1.71;100.00;99912.80;105106;1264;76183;-64
2023/02/04 02:54:40;;;;;;;34.30;15.10;;;;;;;-1.76;100.00;99910.45;105069;1256;68653;-66
2023/02/04 02:57:14;;;;;;;23.70;14.40;;;;;;;-1.78;100.00;99905.34;104845;1257;73968;-62
2023/02/04 02:59:44;;;;;;;27.00;14.50;;;;;;;-1.79;100.00;99906.26;104906;1260;61306;-65
2023/02/04 03:02:15;;;;;;;28.40;15.70;;;;;;;-1.81;100.00;99903.16;105021;1257;61408;-67
2023/02/04 03:04:46;;;;;;;27.90;14.70;;;;;;;-1.85;100.00;99896.17;105118;1262;76163;-67
2023/02/04 03:07:17;;;;;;;26.40;15.00;;;;;;;-1.89;100.00;99893.91;105239;1259;68150;-66
2023/02/04 03:09:45;;;;;;;29.00;16.50;;;;;;;-1.90;100.00;99893.58;105191;1257;74228;-62
2023/02/04 03:12:14;;;;;;;30.10;15.80;;;;;;;-1.91;100.00;99891.16;104982;1257;61244;-65
2023/02/04 03:14:43;;;;;;;28.40;15.90;;;;;;;-1.95;100.00;99891.11;104971;1262;61209;-63
2023/02/04 03:17:15;;;;;;;26.20;14.80;;;;;;;-2.00;100.00;99891.11;105122;1259;75750;-66
2023/02/04 03:19:43;;;;;;;24.70;14.80;;;;;;;-2.04;100.00;99886.98;105214;1264;67358;-66
2023/02/04 03:22:13;;;;;;;29.20;15.50;;;;;;;-2.06;100.00;99880.48;104895;1260;71650;-67
2023/02/04 03:24:42;;;;;;;29.30;15.70;;;;;;;-2.08;100.00;99878.62;105232;1256;61120;-64
2023/02/04 03:27:10;;;;;;;27.60;15.10;;;;;;;-2.10;100.00;99877.23;104962;1262;61240;-66
2023/02/04 03:29:42;;;;;;;26.80;13.90;;;;;;;-2.12;100.00;99875.99;105249;1257;75976;-63
2023/02/04 03:32:11;;;;;;;;;;;;;;;-2.14;100.00;99873.03;105203;1259;67392;-66
2023/02/04 03:34:39;;;;;;;27.70;15.40;;;;;;;-2.15;100.00;99872.48;105095;1259;73327;-66
2023/02/04 03:37:08;;;;;;;30.50;15.70;;;;;;;-2.18;100.00;99870.27;105047;1260;61132;-66
2023/02/04 03:39:36;;;;;;;29.30;16.50;;;;;;;-2.20;100.00;99870.24;104946;1259;61863;-63
2023/02/04 03:42:05;;;;;;;27.80;15.40;;;;;;;-2.22;100.00;99872.05;105050;1260;74890;-66
2023/02/04 03:44:34;;;;;;;28.00;15.50;;;;;;;-2.24;100.00;99878.15;105048;1258;67322;-66
2023/02/04 03:47:03;;;;;;;29.70;15.30;;;;;;;-2.24;100.00;99876.30;105135;1257;73844;-66
2023/02/04 03:49:31;;;;;;;27.20;14.20;;;;;;;-2.24;100.00;99881.58;105105;1259;61431;-66
2023/02/04 03:52:00;;;;;;;30.80;17.70;;;;;;;-2.26;100.00;99884.13;104700;1259;61547;-65
2023/02/04 03:54:29;;;;;;;24.40;14.50;;;;;;;-2.28;100.00;99884.77;105244;1259;76291;-66
2023/02/04 03:56:58;;;;;;;29.70;15.90;;;;;;;-2.29;100.00;99880.27;104995;1262;68283;-68
2023/02/04 03:59:27;;;;;;;29.50;16.70;;;;;;;-2.28;100.00;99878.61;105076;1260;74262;-67
2023/02/04 04:01:58;;;;;;;32.90;17.10;;;;;;;-2.27;100.00;99878.60;105460;1258;62615;-62
2023/02/04 04:04:26;;;;;;;30.70;16.00;;;;;;;-2.27;100.00;99882.13;104985;1258;61175;-66
2023/02/04 04:06:55;;;;;;;30.20;15.30;;;;;;;-2.25;100.00;99889.12;105013;1259;76071;-66
2023/02/04 04:09:25;;;;;;;28.10;14.80;;;;;;;-2.23;100.00;99894.94;105027;1259;68778;-67
2023/02/04 04:11:54;;;;;;;29.70;15.80;;;;;;;-2.22;100.00;99897.75;104980;1260;73130;-66
2023/02/04 04:14:24;;;;;;;31.50;17.40;;;;;;;-2.19;100.00;99900.85;105215;1262;61447;-68
2023/02/04 04:16:52;;;;;;;29.50;15.50;;;;;;;-2.16;100.00;99904.21;105031;1256;62032;-67
2023/02/04 04:19:23;;;;;;;30.60;17.20;;;;;;;-2.16;100.00;99905.17;105089;1259;75703;-66
2023/02/04 04:21:52;;;;;;;25.80;15.80;;;;;;;-2.12;100.00;99905.41;104823;1260;68078;-63
2023/02/04 04:24:21;;;;;;;30.40;15.70;;;;;;;-2.11;100.00;99903.96;105077;1259;74368;-67
2023/02/04 04:26:49;;;;;;;36.20;17.80;;;;;;;-2.10;100.00;99902.25;105173;1257;62914;-66
2023/02/04 04:29:18;;;;;;;28.30;17.20;;;;;;;-2.08;100.00;99905.19;105025;1257;61701;-63
2023/02/04 04:31:47;;;;;;;28.00;15.20;;;;;;;-2.06;100.00;99907.88;105062;1257;75591;-63
2023/02/04 04:34:15;;;;;;;28.40;17.10;;;;;;;-2.03;100.00;99907.52;105034;1260;68923;-66
2023/02/04 04:36:44;;;;;;;29.50;15.80;;;;;;;-2.02;100.00;99904.04;105076;1257;74002;-64
2023/02/04 04:39:12;;;;;;;32.00;18.70;;;;;;;-2.00;100.00;99906.10;105155;1257;63162;-66
2023/02/04 04:41:41;;;;;;;34.10;18.40;;;;;;;-2.00;100.00;99907.10;105167;1257;61142;-67
2023/02/04 04:44:10;;;;;;;29.30;16.80;;;;;;;-1.99;100.00;99905.86;105098;1256;75656;-66
2023/02/04 04:46:39;;;;;;;27.30;15.70;;;;;;;-2.00;100.00;99906.10;105152;1261;67585;-66
2023/02/04 04:49:08;;;;;;;29.70;17.00;;;;;;;-2.00;100.00;99906.27;105000;1256;73283;-66
2023/02/04 04:51:37;;;;;;;32.00;16.30;;;;;;;-1.99;100.00;99904.95;105083;1262;61432;-66
2023/02/04 04:54:06;;;;;;;30.80;17.80;;;;;;;-1.95;100.00;99906.59;105143;1257;61258;-67
2023/02/04 04:56:36;;;;;;;29.80;17.20;;;;;;;-1.99;100.00;99905.47;105071;1256;75230;-66
2023/02/04 04:59:05;;;;;;;28.90;15.80;;;;;;;-1.97;100.00;99908.77;105062;1261;68904;-65
2023/02/04 05:01:34;;;;;;;26.30;15.50;;;;;;;-1.95;100.00;99909.45;105097;1256;73256;-66
2023/02/04 05:04:03;;;;;;;31.10;18.50;;;;;;;-1.90;100.00;99908.23;105179;1257;61237;-66
2023/02/04 05:06:32;;;;;;;28.00;17.00;;;;;;;-1.89;100.00;99908.17;105135;1260;61529;-67
2023/02/04 05:09:00;;;;;;;27.40;15.20;;;;;;;-1.87;100.00;99910.88;105156;1260;76278;-65
2023/02/04 05:11:30;;;;;;;25.80;14.70;;;;;;;-1.85;100.00;99909.73;105092;1257;68621;-66
2023/02/04 05:13:58;;;;;;;25.10;14.90;;;;;;;-1.81;100.00;99909.13;105290;1257;74180;-62
2023/02/04 05:16:26;;;;;;;25.70;15.20;;;;;;;-1.80;100.00;99905.33;105117;1256;61333;-65
2023/02/04 05:18:55;;;;;;;27.60;15.50;;;;;;;-1.79;100.00;99906.21;105156;1256;62148;-65
2023/02/04 05:21:24;;;;;;;26.10;16.80;;;;;;;-1.78;100.00;99905.96;104981;1257;75182;-65
2023/02/04 05:23:52;;;;;;;27.00;14.40;;;;;;;-1.80;100.00;99902.22;104819;1256;68839;-63
2023/02/04 05:26:21;;;;;;;25.60;14.70;;;;;;;-1.81;100.00;99904.16;105133;1261;74074;-67
2023/02/04 05:28:59;;;;;;;29.10;16.70;;;;;;;-1.80;100.00;99904.44;105202;1257;61288;-64
2023/02/04 05:31:28;;;;;;;27.10;15.80;;;;;;;-1.77;100.00;99901.51;105156;1256;61100;-67
2023/02/04 05:33:56;;;;;;;27.70;15.20;;;;;;;-1.78;100.00;99903.09;105097;1259;76251;-66
2023/02/04 05:36:25;;;;;;;28.00;15.00;;;;;;;-1.77;100.00;99904.23;105096;1260;67709;-66
2023/02/04 05:38:54;;;;;;;26.90;15.30;;;;;;;-1.75;100.00;99904.89;105351;1257;72951;-64
2023/02/04 05:41:23;;;;;;;28.60;15.40;;;;;;;-1.73;100.00;99908.05;105034;1257;61346;-67
2023/02/04 05:43:51;;;;;;;29.00;16.30;;;;;;;-1.73;100.00;99906.12;105047;1260;61914;-66
2023/02/04 05:46:20;;;;;;;29.90;16.30;;;;;;;-1.71;100.00;99906.83;105126;1259;76203;-65
2023/02/04 05:48:48;;;;;;;28.90;17.10;;;;;;;-1.68;100.00;99908.52;105306;1256;67753;-65
2023/02/04 05:51:17;;;;;;;28.90;15.40;;;;;;;-1.65;100.00;99907.30;105129;1262;74475;-66
2023/02/04 05:53:46;;;;;;;29.60;16.20;;;;;;;-1.62;100.00;99907.42;105128;1258;62851;-65
2023/02/04 05:56:14;;;;;;;27.90;15.30;;;;;;;-1.59;100.00;99908.37;105153;1262;61760;-65
2023/02/04 05:58:43;;;;;;;31.30;16.80;;;;;;;-1.54;100.00;99911.73;105369;1257;75307;-65
2023/02/04 06:01:11;;;;;;;26.40;16.10;;;;;;;-1.49;100.00;99915.27;105123;1256;68977;-65
2023/02/04 06:03:40;;;;;;;28.30;15.90;;;;;;;-1.41;100.00;99914.54;105495;1257;73702;-65
2023/02/04 06:06:08;;;;;;;24.70;15.30;;;;;;;-1.38;100.00;99912.89;105108;1256;62705;-66
2023/02/04 06:08:38;;;;;;;31.10;16.90;;;;;;;-1.36;100.00;99913.42;105168;1257;61263;-63
2023/02/04 06:11:06;;;;;;;26.90;15.00;;;;;;;-1.36;100.00;99916.06;105113;1260;76275;-67
2023/02/04 06:13:34;;;;;;;29.80;17.40;;;;;;;-1.38;100.00;99919.20;105207;1257;68503;-64
2023/02/04 06:16:03;;;;;;;25.60;16.00;;;;;;;-1.39;100.00;99919.29;105038;1257;74282;-68
2023/02/04 06:18:32;;;;;;;27.00;15.00;;;;;;;-1.39;100.00;99918.09;105015;1256;62695;-66
2023/02/04 06:21:03;;;;;;;26.50;15.20;;;;;;;-1.41;100.00;99922.34;105094;1262;61248;-68
2023/02/04 06:23:33;;;;;;;28.00;16.70;;;;;;;-1.38;100.00;99925.91;105245;1259;76181;-63
2023/02/04 06:26:01;;;;;;;29.70;16.40;;;;;;;-1.37;100.00;99927.88;105089;1260;67604;-65
2023/02/04 06:28:30;;;;;;;27.90;16.50;;;;;;;-1.36;100.00;99927.04;104963;1261;72197;-64
2023/02/04 06:31:00;;;;;;;28.80;17.30;;;;;;;-1.34;100.00;99928.84;105111;1256;62064;-66
2023/02/04 06:33:30;;;;;;;25.60;14.80;;;;;;;-1.33;100.00;99932.81;105299;1256;61208;-63
2023/02/04 06:35:59;;;;;;;30.30;16.80;;;;;;;-1.31;100.00;99936.44;105184;1257;75202;-66
2023/02/04 06:38:29;;;;;;;29.80;17.20;;;;;;;-1.28;100.00;99937.91;105428;1260;66982;-65
2023/02/04 06:40:58;;;;;;;31.10;17.40;;;;;;;-1.25;100.00;99937.52;105180;1256;72522;-65
2023/02/04 06:43:27;;;;;;;26.20;16.70;;;;;;;-1.23;100.00;99940.77;105286;1262;61681;-67
2023/02/04 06:45:55;;;;;;;28.00;16.70;;;;;;;-1.23;100.00;99940.77;105017;1257;61305;-67
2023/02/04 06:48:24;;;;;;;26.70;15.30;;;;;;;-1.20;100.00;99947.05;105123;1256;75706;-66
2023/02/04 06:50:52;;;;;;;24.10;15.10;;;;;;;-1.15;100.00;99947.02;104950;1261;67150;-68
2023/02/04 06:53:21;;;;;;;26.60;16.40;;;;;;;-1.09;100.00;99948.46;105314;1261;74216;-67
2023/02/04 06:55:50;;;;;;;25.10;15.30;;;;;;;-1.06;100.00;99946.65;105128;1262;62653;-66
2023/02/04 06:58:19;;;;;;;28.60;16.20;;;;;;;-1.03;100.00;99946.89;105290;1257;61587;-64
2023/02/04 07:00:48;;;;;;;29.20;15.10;;;;;;;-1.00;100.00;99947.88;105045;1262;75918;-66
2023/02/04 07:03:17;;;;;;;27.00;16.30;;;;;;;-0.94;100.00;99952.78;105427;1257;68671;-66
2023/02/04 07:05:46;;;;;;;26.60;15.50;;;;;;;-0.92;100.00;99954.62;105082;1260;73496;-67
2023/02/04 07:08:14;;;;;;;26.00;15.70;;;;;;;-0.93;100.00;99952.69;105100;1260;63350;-66
2023/02/04 07:10:43;;;;;;;25.80;15.10;;;;;;;-0.91;100.00;99957.31;105051;1262;61153;-66
2023/02/04 07:13:19;;;;;;;29.00;16.30;;;;;;;-0.89;100.00;99956.24;104876;1258;76454;-64
2023/02/04 07:15:48;;;;;;;27.30;16.10;;;;;;;-0.86;100.00;99955.89;105050;1260;68795;-68
2023/02/04 07:18:18;;;;;;;28.70;16.40;;;;;;;-0.83;100.00;99957.90;104990;1260;74357;-63
2023/02/04 07:20:47;;;;;;;27.00;17.20;;;;;;;-0.81;100.00;99958.55;105216;1262;286308;-66
2023/02/04 07:23:15;;;;;;;27.90;16.60;;;;;;;-0.76;100.00;99962.76;105268;1262;61251;-65
2023/02/04 07:25:44;;;;;;;25.60;14.90;;;;;;;-0.75;100.00;99961.12;104953;1259;74708;-67
2023/02/04 07:28:12;;;;;;;29.70;17.60;;;;;;;-0.77;100.00;99960.63;105039;1260;67193;-68
2023/02/04 07:30:41;;;;;;;30.80;17.30;;;;;;;-0.72;100.00;99961.31;105022;1262;74675;-65
2023/02/04 07:33:10;;;;;;;34.10;17.30;;;;;;;-0.63;100.00;99961.67;105436;1262;61346;-65
2023/02/04 07:35:38;;;;;;;30.30;17.40;;;;;;;-0.59;100.00;99963.34;105390;1262;61167;-66
2023/02/04 07:38:07;;;;;;;28.40;17.30;;;;;;;-0.55;100.00;99962.38;105487;1259;74227;-65
2023/02/04 07:40:36;;;;;;;32.80;20.10;;;;;;;-0.55;100.00;99963.05;105512;1259;67865;-64
2023/02/04 07:43:05;;;;;;;32.30;18.20;;;;;;;-0.51;100.00;99962.36;105418;1257;73061;-64
2023/02/04 07:45:34;;;;;;;37.40;21.90;;;;;;;-0.47;100.00;99963.84;105488;1262;61685;-64
2023/02/04 07:48:04;;;;;;;31.10;19.80;;;;;;;-0.44;100.00;99963.07;105513;1257;61355;-65
2023/02/04 07:50:32;;;;;;;32.90;17.70;;;;;;;-0.40;100.00;99961.58;105339;1261;75886;-64
2023/02/04 07:53:02;;;;;;;26.70;16.00;;;;;;;-0.38;100.00;99963.98;105213;1258;68494;-67
2023/02/04 07:55:30;;;;;;;29.70;16.80;;;;;;;-0.36;100.00;99962.63;105317;1260;75210;-67
2023/02/04 07:57:59;;;;;;;31.30;18.00;;;;;;;-0.32;100.00;99965.52;105233;1258;61410;-65
2023/02/04 08:00:28;;;;;;;26.80;17.00;;;;;;;-0.31;100.00;99967.83;105371;1257;61566;-69
2023/02/04 08:02:57;;;;;;;29.10;17.40;;;;;;;-0.29;100.00;99968.98;105302;1261;76057;-66
2023/02/04 08:05:26;;;;;;;26.10;17.00;;;;;;;-0.25;100.00;99972.66;105360;1261;68261;-69
2023/02/04 08:07:55;;;;;;;36.30;20.60;;;;;;;-0.13;100.00;99970.83;105504;1262;74468;-68
2023/02/04 08:10:23;;;;;;;33.00;19.80;;;;;;;-0.04;100.00;99969.41;105556;1262;61277;-67
2023/02/04 08:12:53;;;;;;;34.30;19.60;;;;;;;0.04;100.00;99968.98;105590;1256;61790;-66
2023/02/04 08:15:22;;;;;;;35.90;21.30;;;;;;;0.10;100.00;99967.16;105585;1256;74408;-66
2023/02/04 08:17:50;;;;;;;34.20;21.40;;;;;;;0.14;100.00;99969.56;105271;1262;67618;-66
2023/02/04 08:20:19;;;;;;;37.30;21.40;;;;;;;0.25;100.00;99968.30;105314;1256;74266;-66
2023/02/04 08:22:48;;;;;;;36.00;21.10;;;;;;;0.32;100.00;99970.89;105121;1256;61283;-66
2023/02/04 08:25:16;;;;;;;35.60;22.50;;;;;;;0.37;100.00;99965.63;105536;1263;61915;-66
2023/02/04 08:27:45;;;;;;;40.30;22.10;;;;;;;0.44;100.00;99964.09;104885;1262;76189;-66
2023/02/04 08:30:13;;;;;;;36.90;21.20;;;;;;;0.52;100.00;99959.35;105014;1261;68436;-64
2023/02/04 08:32:42;;;;;;;37.80;21.70;;;;;;;0.66;100.00;99956.58;104905;1262;74057;-64
2023/02/04 08:35:11;;;;;;;33.40;20.40;;;;;;;0.83;100.00;99958.78;105066;1262;61330;-64
2023/02/04 08:37:41;;;;;;;41.00;24.80;;;;;;;0.97;100.00;99958.64;105097;1261;61728;-63
2023/02/04 08:40:10;;;;;;;39.80;22.90;;;;;;;1.10;100.00;99957.55;105278;1265;75947;-62
2023/02/04 08:42:40;;;;;;;40.30;22.40;;;;;;;1.21;100.00;99957.66;105212;1256;68738;-63
2023/02/04 08:45:08;;;;;;;43.10;24.50;;;;;;;1.25;100.00;99952.91;105298;1256;73414;-62
2023/02/04 08:47:37;;;;;;;40.30;24.90;;;;;;;1.26;100.00;99946.98;105071;1256;62697;-62
2023/02/04 08:50:06;;;;;;;39.40;22.40;;;;;;;1.39;100.00;99942.73;105229;1257;61917;-63
2023/02/04 08:52:36;;;;;;;42.50;23.60;;;;;;;1.53;100.00;99940.17;104983;1260;76124;-63
2023/02/04 08:55:05;;;;;;;41.20;22.30;;;;;;;1.65;100.00;99940.48;104999;1262;66921;-63
2023/02/04 08:57:36;;;;;;;41.90;23.00;;;;;;;1.70;100.00;99938.55;104965;1261;73970;-62
2023/02/04 09:00:04;;;;;;;40.00;22.20;;;;;;;1.64;100.00;99937.19;105054;1262;61626;-61
2023/02/04 09:02:34;;;;;;;38.80;22.80;;;;;;;1.58;100.00;99934.59;105008;1262;61630;-60
2023/02/04 09:05:03;;;;;;;41.50;22.90;;;;;;;1.51;100.00;99931.13;105168;1261;76161;-63
2023/02/04 09:07:32;;;;;;;42.70;26.20;;;;;;;1.36;100.00;99929.33;105128;1262;68820;-60
2023/02/04 09:10:01;;;;;;;47.60;25.20;;;;;;;1.31;100.00;99927.23;105363;1260;74172;-62
2023/02/04 09:12:31;;;;;;;42.60;25.40;;;;;;;1.28;100.00;99926.90;105303;1257;61321;-61
2023/02/04 09:15:00;;;;;;;43.80;24.50;;;;;;;1.25;100.00;99927.25;105405;1257;61123;-61
2023/02/04 09:17:32;;;;;;;41.50;24.00;;;;;;;1.20;100.00;99924.17;105170;1263;76233;-61
2023/02/04 09:20:02;;;;;;;61.00;34.90;;;;;;;1.15;100.00;99923.22;105413;1257;69044;-62
2023/02/04 09:22:31;;;;;;;42.60;24.70;;;;;;;1.16;100.00;99921.98;105430;1258;72907;-62
2023/02/04 09:24:59;;;;;;;41.20;24.60;;;;;;;1.12;100.00;99924.20;105252;1256;62781;-61
2023/02/04 09:27:28;;;;;;;45.10;24.90;;;;;;;1.12;100.00;99923.34;105345;1258;61279;-60
2023/02/04 09:29:57;;;;;;;41.70;23.20;;;;;;;1.14;100.00;99918.65;105427;1261;74981;-62
2023/02/04 09:32:25;;;;;;;39.40;22.40;;;;;;;1.22;100.00;99919.92;105452;1257;68830;-60
2023/02/04 09:34:54;;;;;;;33.60;20.50;;;;;;;1.29;100.00;99915.41;104806;1262;72481;-62
2023/02/04 09:37:25;;;;;;;40.60;22.50;;;;;;;1.35;100.00;99914.00;105192;1261;61391;-59
2023/02/04 09:39:54;;;;;;;43.60;25.20;;;;;;;1.45;100.00;99913.86;105083;1263;61337;-60
2023/02/04 09:42:22;;;;;;;47.90;28.10;;;;;;;1.58;100.00;99914.60;105140;1260;76141;-63
2023/02/04 09:44:51;;;;;;;48.60;28.50;;;;;;;1.75;100.00;99918.43;105177;1265;66839;-60
2023/02/04 09:47:21;;;;;;;48.60;27.90;;;;;;;1.87;100.00;99914.60;105076;1262;73450;-59
2023/02/04 09:49:50;;;;;;;40.60;25.40;;;;;;;1.96;100.00;99916.00;105232;1262;61238;-59
2023/02/04 09:52:19;;;;;;;45.00;28.30;;;;;;;2.04;100.00;99915.52;105237;1262;61278;-62
2023/02/04 09:54:47;;;;;;;42.40;25.40;;;;;;;2.15;100.00;99913.15;105092;1260;75353;-60
2023/02/04 09:57:17;;;;;;;38.80;22.50;;;;;;;2.25;100.00;99910.72;105097;1257;68545;-60
2023/02/04 09:59:46;;;;;;;37.80;22.70;;;;;;;2.32;100.00;99913.84;105220;1262;74083;-60
2023/02/04 10:02:20;;;;;;;43.80;28.10;;;;;;;2.43;100.00;99912.17;105160;1261;61260;-61
2023/02/04 10:04:50;;;;;;;42.00;25.10;;;;;;;2.47;100.00;99909.79;105299;1262;61929;-60
2023/02/04 10:07:21;;;;;;;39.10;24.30;;;;;;;2.48;100.00;99907.56;104893;1263;76286;-59
2023/02/04 10:09:50;;;;;;;40.90;24.90;;;;;;;2.48;100.00;99905.23;104798;1262;67560;-62
2023/02/04 10:12:19;;;;;;;46.50;26.60;;;;;;;2.49;100.00;99908.91;104945;1263;73251;-61
2023/02/04 10:14:48;;;;;;;39.00;23.70;;;;;;;2.50;100.00;99910.02;105124;1262;61723;-61
2023/02/04 10:17:19;;;;;;;37.50;21.30;;;;;;;2.46;100.00;99905.90;105327;1261;61294;-61
2023/02/04 10:19:48;;;;;;;39.00;22.10;;;;;;;2.39;100.00;99903.60;105450;1260;76436;-62
2023/02/04 10:22:19;;;;;;;39.80;23.30;;;;;;;2.33;100.00;99900.75;104922;1260;67552;-60
2023/02/04 10:24:48;;;;;;;42.80;25.60;;;;;;;2.36;100.00;99893.05;104932;1262;71911;-60
2023/02/04 10:27:17;;;;;;;42.00;25.70;;;;;;;2.40;100.00;99894.46;105181;1268;62572;-60
2023/02/04 10:29:56;;;;;;;38.90;23.00;;;;;;;2.54;100.00;99889.04;105518;1258;61696;-61
2023/02/04 10:32:27;;;;;;;44.30;26.20;;;;;;;2.76;100.00;99883.80;105042;1262;75909;-59
2023/02/04 10:34:57;;;;;;;40.10;24.50;;;;;;;2.99;100.00;99885.77;105061;1264;68574;-60
2023/02/04 10:37:26;;;;;;;40.60;25.20;;;;;;;3.23;100.00;99889.87;104937;1261;74033;-60
2023/02/04 10:39:55;;;;;;;42.10;24.50;;;;;;;3.33;100.00;99888.55;105207;1262;61353;-61
2023/02/04 10:42:25;;;;;;;35.50;22.30;;;;;;;3.35;100.00;99890.05;105159;1259;61654;-60
2023/02/04 10:44:53;;;;;;;41.80;23.80;;;;;;;3.41;100.00;99890.02;105045;1259;76202;-62
2023/02/04 10:47:23;;;;;;;40.60;24.00;;;;;;;3.50;100.00;99889.52;105391;1262;68863;-63
2023/02/04 10:50:13;;;;;;;43.00;25.60;;;;;;;3.57;100.00;99890.77;105296;1262;73706;-61
2023/02/04 10:52:43;;;;;;;39.70;24.10;;;;;;;3.51;100.00;99893.14;104851;1264;61251;-60
2023/02/04 10:55:19;;;;;;;42.90;25.10;;;;;;;3.49;100.00;99891.48;105090;1260;61277;-60
2023/02/04 10:57:48;;;;;;;35.10;21.50;;;;;;;3.48;100.00;99891.23;105298;1263;75987;-61
2023/02/04 11:00:22;;;;;;;40.00;25.10;;;;;;;3.42;100.00;99891.61;105153;1263;67310;-61
2023/02/04 11:03:07;;;;;;;39.70;24.50;;;;;;;3.36;100.00;99890.80;105195;1263;74131;-60
2023/02/04 11:05:35;;;;;;;36.80;21.00;;;;;;;3.35;100.00;99892.16;105224;1262;61280;-60
2023/02/04 11:08:35;;;;;;;50.50;28.80;;;;;;;3.32;100.00;99889.17;105315;1260;61880;-60
2023/02/04 11:11:11;;;;;;;39.90;25.70;;;;;;;3.31;100.00;99888.60;105431;1262;76314;-60
2023/02/04 11:13:41;;;;;;;38.20;23.50;;;;;;;3.26;100.00;99891.31;105326;1265;67747;-60
2023/02/04 11:16:16;;;;;;;46.70;28.20;;;;;;;3.17;100.00;99893.69;105377;1263;73665;-60